Time;durP1;ratioP1;P1;durP2;ratioP2;P2;SDS_P1;SDS_P2;PMS_P1;PMS_P2;Temp;Humidity;BMP_temperature;BMP_pressure;BME280_temperature;BME280_humidity;BME280_pressure;Samples;Min_cycle;Max_cycle;Signal;HPM_P1;HPM_P2
2021/05/16 00:00:50;;;;;;;2.35;1.45;;;13.20;99.90;;;;;;5063228;28;20066;-49
2021/05/16 00:03:15;;;;;;;1.85;1.70;;;13.10;99.90;;;;;;5064318;28;20050;-51
2021/05/16 00:05:41;;;;;;;2.30;1.50;;;13.00;99.90;;;;;;5064398;28;20031;-49
2021/05/16 00:08:09;;;;;;;2.63;1.45;;;12.90;99.90;;;;;;5062188;28;20498;-50
2021/05/16 00:10:35;;;;;;;1.73;1.63;;;12.90;99.90;;;;;;5064388;28;20060;-50
2021/05/16 00:13:02;;;;;;;1.73;1.60;;;12.90;99.90;;;;;;5064336;28;20470;-50
2021/05/16 00:15:30;;;;;;;1.70;1.60;;;13.00;99.90;;;;;;5064375;28;20041;-47
2021/05/16 00:17:56;;;;;;;1.83;1.50;;;12.90;99.90;;;;;;5064111;28;20028;-49
2021/05/16 00:20:24;;;;;;;1.80;1.70;;;12.90;99.90;;;;;;5062767;28;20403;-51
2021/05/16 00:22:51;;;;;;;1.20;1.10;;;13.00;99.90;;;;;;5064307;28;20056;-50
2021/05/16 00:25:20;;;;;;;1.30;1.20;;;13.00;99.90;;;;;;5064880;28;20028;-49
2021/05/16 00:27:47;;;;;;;4.90;1.35;;;12.90;99.90;;;;;;5065024;28;20040;-51
2021/05/16 00:30:17;;;;;;;1.40;1.30;;;13.00;99.90;;;;;;5064623;28;20505;-50
2021/05/16 00:32:43;;;;;;;1.35;1.25;;;13.10;99.90;;;;;;5064663;28;20452;-50
2021/05/16 00:35:12;;;;;;;1.50;1.40;;;13.00;99.90;;;;;;5063214;28;20078;-47
2021/05/16 00:37:38;;;;;;;1.52;1.42;;;13.10;99.90;;;;;;5062702;28;20016;-51
2021/05/16 00:40:05;;;;;;;1.70;1.60;;;13.10;99.90;;;;;;5064010;28;20039;-49
2021/05/16 00:42:31;;;;;;;1.60;1.50;;;13.10;99.90;;;;;;5064310;28;20059;-52
2021/05/16 00:45:10;;;;;;;1.50;1.40;;;13.10;99.90;;;;;;5064168;28;20060;-47
2021/05/16 00:47:37;;;;;;;1.88;1.50;;;13.20;99.90;;;;;;5063792;28;20032;-50
2021/05/16 00:50:09;;;;;;;1.52;1.30;;;13.10;99.90;;;;;;5063584;28;20060;-49
2021/05/16 00:52:37;;;;;;;1.65;1.55;;;13.10;99.90;;;;;;5064253;28;20024;-47
2021/05/16 00:55:05;;;;;;;1.60;1.50;;;13.10;99.90;;;;;;5063984;28;20110;-50
2021/05/16 00:57:30;;;;;;;1.80;1.70;;;13.20;99.90;;;;;;5063592;28;20478;-51
2021/05/16 00:59:57;;;;;;;1.98;1.80;;;13.10;99.90;;;;;;5063960;28;20041;-48
2021/05/16 01:02:23;;;;;;;1.75;1.65;;;13.10;99.90;;;;;;5063968;28;20082;-47
2021/05/16 01:04:51;;;;;;;2.20;1.60;;;13.20;99.90;;;;;;5065665;28;20457;-49
2021/05/16 01:07:17;;;;;;;1.65;1.55;;;13.20;99.90;;;;;;5066934;28;20373;-48
2021/05/16 01:09:43;;;;;;;1.77;1.58;;;13.20;99.90;;;;;;5068254;28;20068;-48
2021/05/16 01:12:10;;;;;;;1.77;1.67;;;13.20;99.90;;;;;;5067508;28;20044;-47
2021/05/16 01:14:39;;;;;;;1.55;1.45;;;13.20;99.90;;;;;;5067982;28;20131;-47
2021/05/16 01:17:06;;;;;;;1.60;1.50;;;13.20;99.90;;;;;;5068053;28;20012;-47
2021/05/16 01:19:32;;;;;;;1.65;1.55;;;13.30;99.90;;;;;;5067860;28;20025;-47
2021/05/16 01:22:00;;;;;;;2.00;1.48;;;13.20;99.90;;;;;;5068421;28;20483;-48
2021/05/16 01:24:28;;;;;;;1.70;1.60;;;13.20;99.90;;;;;;5067287;28;20098;-47
2021/05/16 01:26:55;;;;;;;1.58;1.42;;;13.20;99.90;;;;;;5068272;28;20025;-48
2021/05/16 01:29:24;;;;;;;1.48;1.38;;;13.30;99.90;;;;;;5067864;28;20036;-47
2021/05/16 01:31:51;;;;;;;1.15;1.10;;;13.20;99.90;;;;;;5068583;28;20050;-46
2021/05/16 01:34:17;;;;;;;1.85;1.75;;;13.10;99.90;;;;;;5068166;28;20100;-46
2021/05/16 01:36:44;;;;;;;1.65;1.55;;;13.20;99.90;;;;;;5068117;28;20091;-47
2021/05/16 01:39:13;;;;;;;1.60;1.50;;;13.20;99.90;;;;;;5067530;28;20474;-47
2021/05/16 01:41:41;;;;;;;1.80;1.70;;;13.20;99.90;;;;;;5067786;28;20021;-47
2021/05/16 01:44:11;;;;;;;1.60;1.50;;;13.20;99.90;;;;;;5067815;28;20093;-46
2021/05/16 01:46:37;;;;;;;1.90;1.48;;;13.20;99.90;;;;;;5067895;28;20028;-50
2021/05/16 01:49:03;;;;;;;1.50;1.40;;;13.20;99.90;;;;;;5064708;28;20020;-50
2021/05/16 01:51:30;;;;;;;1.48;1.38;;;13.20;99.90;;;;;;5067080;28;20032;-51
2021/05/16 01:53:56;;;;;;;1.60;1.50;;;13.20;99.90;;;;;;5067116;28;20040;-49
2021/05/16 01:56:24;;;;;;;1.88;1.70;;;13.30;99.90;;;;;;5067041;28;20135;-49
2021/05/16 01:58:52;;;;;;;1.40;1.30;;;13.20;99.90;;;;;;5067673;28;20123;-50
2021/05/16 02:01:18;;;;;;;2.10;1.85;;;13.20;99.90;;;;;;5067520;28;20549;-47
2021/05/16 02:03:46;;;;;;;3.05;2.00;;;13.20;99.90;;;;;;5067566;28;20506;-50
2021/05/16 02:06:15;;;;;;;1.98;1.88;;;13.20;99.90;;;;;;5066913;28;20036;-48
2021/05/16 02:08:43;;;;;;;1.50;1.27;;;13.20;99.90;;;;;;5067628;28;20037;-49
2021/05/16 02:11:10;;;;;;;2.45;1.65;;;13.20;99.90;;;;;;5066918;28;20028;-51
2021/05/16 02:13:41;;;;;;;1.50;1.40;;;13.10;99.90;;;;;;5067151;28;20387;-51
2021/05/16 02:16:09;;;;;;;1.50;1.40;;;13.10;99.90;;;;;;5066202;28;20028;-49
2021/05/16 02:18:35;;;;;;;1.45;1.35;;;13.10;99.90;;;;;;5066916;28;20036;-51
2021/05/16 02:21:03;;;;;;;1.40;1.30;;;13.20;99.90;;;;;;5067097;28;20035;-48
2021/05/16 02:23:30;;;;;;;1.30;1.20;;;13.20;99.90;;;;;;5067476;28;20047;-47
2021/05/16 02:25:55;;;;;;;1.40;1.30;;;13.20;99.90;;;;;;5067017;28;20105;-50
2021/05/16 02:28:22;;;;;;;2.17;1.52;;;13.20;99.90;;;;;;5067073;28;20962;-47
2021/05/16 02:30:50;;;;;;;1.13;1.10;;;13.20;99.90;;;;;;5066808;28;20048;-49
2021/05/16 02:33:16;;;;;;;1.42;1.33;;;13.10;99.90;;;;;;5067100;28;20032;-47
2021/05/16 02:35:43;;;;;;;1.33;1.20;;;13.20;99.90;;;;;;5066572;28;20073;-47
2021/05/16 02:38:10;;;;;;;1.40;1.30;;;13.20;99.90;;;;;;5066878;28;20062;-47
2021/05/16 02:40:36;;;;;;;1.38;1.27;;;13.20;99.90;;;;;;5066947;28;20017;-46
2021/05/16 02:43:02;;;;;;;1.52;1.42;;;13.20;99.90;;;;;;5066556;28;20123;-47
2021/05/16 02:45:29;;;;;;;1.45;1.20;;;13.20;99.90;;;;;;5066536;28;20107;-48
2021/05/16 02:47:54;;;;;;;1.40;1.30;;;13.20;99.90;;;;;;5066389;28;20056;-48
2021/05/16 02:50:20;;;;;;;1.88;1.33;;;13.20;99.90;;;;;;5066320;28;20063;-46
2021/05/16 02:52:46;;;;;;;2.10;1.40;;;13.20;99.90;;;;;;5067081;28;20124;-48
2021/05/16 02:55:12;;;;;;;1.92;1.60;;;13.30;99.90;;;;;;5066337;28;20486;-47
2021/05/16 02:57:38;;;;;;;1.60;1.50;;;13.30;99.90;;;;;;5066216;28;20402;-48
2021/05/16 03:00:06;;;;;;;1.17;1.10;;;13.30;99.90;;;;;;5064736;28;20029;-48
2021/05/16 03:02:32;;;;;;;1.45;1.35;;;13.30;99.90;;;;;;5066174;28;20077;-48
2021/05/16 03:04:58;;;;;;;1.30;1.20;;;13.30;99.90;;;;;;5066391;28;20024;-50
2021/05/16 03:07:24;;;;;;;1.48;1.38;;;13.20;99.90;;;;;;5065995;28;20040;-50
2021/05/16 03:09:50;;;;;;;1.42;1.33;;;13.20;99.90;;;;;;5065706;28;20032;-50
2021/05/16 03:12:15;;;;;;;1.70;1.60;;;13.30;99.90;;;;;;5066729;28;20029;-48
2021/05/16 03:14:41;;;;;;;1.60;1.50;;;13.30;99.90;;;;;;5066158;28;20035;-51
2021/05/16 03:17:08;;;;;;;1.42;1.33;;;13.20;99.90;;;;;;5064964;28;20517;-48
2021/05/16 03:19:34;;;;;;;1.80;1.65;;;13.20;99.90;;;;;;5064914;28;20024;-49
2021/05/16 03:22:01;;;;;;;1.40;1.30;;;13.30;99.90;;;;;;5066183;28;20037;-51
2021/05/16 03:24:28;;;;;;;1.85;1.52;;;13.30;99.90;;;;;;5065766;28;20021;-49
2021/05/16 03:26:54;;;;;;;1.98;1.77;;;13.40;99.90;;;;;;5065612;28;20642;-48
2021/05/16 03:29:20;;;;;;;1.60;1.50;;;13.40;99.90;;;;;;5064690;28;20028;-48
2021/05/16 03:31:48;;;;;;;1.83;1.73;;;13.50;99.90;;;;;;5066283;28;20036;-50
2021/05/16 03:34:13;;;;;;;2.67;1.70;;;13.50;99.90;;;;;;5066136;28;20012;-47
2021/05/16 03:36:39;;;;;;;2.70;1.90;;;13.50;99.90;;;;;;5064883;28;20472;-47
2021/05/16 03:39:06;;;;;;;1.83;1.73;;;13.40;99.90;;;;;;5064730;28;20028;-47
2021/05/16 03:41:33;;;;;;;1.92;1.80;;;13.50;99.90;;;;;;5065375;28;20034;-47
2021/05/16 03:43:58;;;;;;;2.08;1.67;;;13.70;99.90;;;;;;5065532;28;20538;-47
2021/05/16 03:46:24;;;;;;;1.80;1.70;;;13.70;99.90;;;;;;5063822;28;20072;-46
2021/05/16 03:48:49;;;;;;;1.67;1.58;;;13.60;99.90;;;;;;5065247;28;20054;-47
2021/05/16 03:51:15;;;;;;;1.80;1.70;;;13.60;99.90;;;;;;5065709;28;20025;-47
2021/05/16 03:53:41;;;;;;;3.25;1.63;;;13.60;99.90;;;;;;5065518;28;20028;-48
2021/05/16 03:56:09;;;;;;;1.73;1.60;;;13.60;99.90;;;;;;5064802;28;20024;-48
2021/05/16 03:58:35;;;;;;;1.83;1.45;;;13.60;99.90;;;;;;5063843;28;20526;-47
2021/05/16 04:01:02;;;;;;;1.33;1.23;;;13.60;99.90;;;;;;5065454;28;20024;-49
2021/05/16 04:03:27;;;;;;;1.52;1.40;;;13.60;99.90;;;;;;5064850;28;20021;-48
2021/05/16 04:05:54;;;;;;;1.40;1.30;;;13.40;99.90;;;;;;5065543;28;20123;-47
2021/05/16 04:08:21;;;;;;;2.05;1.80;;;13.50;99.90;;;;;;5065118;28;20020;-46
2021/05/16 04:10:47;;;;;;;1.70;1.60;;;13.40;99.90;;;;;;5065682;28;20533;-47
2021/05/16 04:13:14;;;;;;;1.60;1.50;;;13.40;99.90;;;;;;5064153;28;20418;-47
2021/05/16 04:15:40;;;;;;;1.40;1.30;;;13.40;99.90;;;;;;5065041;28;20050;-47
2021/05/16 04:18:08;;;;;;;1.50;1.40;;;13.40;99.90;;;;;;5064870;28;20029;-51
2021/05/16 04:20:34;;;;;;;1.80;1.70;;;13.40;99.90;;;;;;5064937;28;20483;-50
2021/05/16 04:23:00;;;;;;;1.70;1.60;;;13.40;99.90;;;;;;5065144;28;20063;-50
2021/05/16 04:25:27;;;;;;;1.70;1.60;;;13.40;99.90;;;;;;5065100;28;20028;-49
2021/05/16 04:27:53;;;;;;;1.80;1.70;;;13.40;99.90;;;;;;5064644;28;20021;-50
2021/05/16 04:30:19;;;;;;;2.20;2.00;;;13.30;99.90;;;;;;5064909;28;20473;-50
2021/05/16 04:32:45;;;;;;;2.33;1.77;;;13.30;99.90;;;;;;5065376;28;20048;-50
2021/05/16 04:35:11;;;;;;;2.10;1.90;;;13.30;99.90;;;;;;5064354;28;20467;-49
2021/05/16 04:37:37;;;;;;;2.20;2.00;;;13.30;99.90;;;;;;5064894;28;20024;-51
2021/05/16 04:40:04;;;;;;;1.73;1.63;;;13.30;99.90;;;;;;5066956;28;20093;-49
2021/05/16 04:42:30;;;;;;;2.38;1.90;;;13.30;99.90;;;;;;5068947;28;20380;-50
2021/05/16 04:44:57;;;;;;;2.00;1.50;;;13.30;99.90;;;;;;5069063;28;20047;-50
2021/05/16 04:47:25;;;;;;;2.10;1.90;;;13.30;99.90;;;;;;5068835;28;20112;-51
2021/05/16 04:49:51;;;;;;;1.63;1.52;;;13.30;99.90;;;;;;5067976;28;20032;-50
2021/05/16 04:52:16;;;;;;;1.90;1.80;;;13.40;99.90;;;;;;5069262;28;20149;-47
2021/05/16 04:54:42;;;;;;;2.13;1.80;;;13.40;99.90;;;;;;5068791;28;20379;-49
2021/05/16 04:57:08;;;;;;;2.13;1.92;;;13.40;99.90;;;;;;5067953;28;20024;-49
2021/05/16 04:59:35;;;;;;;1.70;1.60;;;13.40;99.90;;;;;;5068484;28;20686;-49
2021/05/16 05:02:00;;;;;;;2.22;2.00;;;13.40;99.90;;;;;;5068486;28;20250;-49
2021/05/16 05:04:28;;;;;;;1.75;1.60;;;13.40;99.90;;;;;;5067975;28;20467;-48
2021/05/16 05:06:54;;;;;;;1.70;1.60;;;13.40;99.90;;;;;;5068714;28;20028;-47
2021/05/16 05:09:19;;;;;;;1.55;1.45;;;13.40;99.90;;;;;;5068236;28;20036;-49
2021/05/16 05:11:47;;;;;;;1.88;1.73;;;13.40;99.90;;;;;;5068728;28;20017;-50
2021/05/16 05:14:13;;;;;;;1.30;1.20;;;13.50;99.90;;;;;;5068284;28;20116;-48
2021/05/16 05:16:40;;;;;;;1.80;1.70;;;13.50;99.90;;;;;;5068262;28;20025;-46
2021/05/16 05:19:07;;;;;;;1.60;1.50;;;13.50;99.90;;;;;;5068049;28;20025;-47
2021/05/16 05:21:32;;;;;;;1.70;1.60;;;13.50;99.90;;;;;;5067039;28;20115;-47
2021/05/16 05:23:59;;;;;;;1.75;1.65;;;13.50;99.90;;;;;;5067326;28;20534;-47
2021/05/16 05:26:24;;;;;;;1.50;1.40;;;13.50;99.90;;;;;;5067904;28;20108;-47
2021/05/16 05:28:51;;;;;;;1.70;1.60;;;13.60;99.90;;;;;;5068708;28;20115;-47
2021/05/16 05:31:16;;;;;;;1.45;1.30;;;13.60;99.90;;;;;;5066997;28;20039;-46
2021/05/16 05:33:43;;;;;;;1.80;1.70;;;13.50;99.90;;;;;;5068178;28;20029;-47
2021/05/16 05:36:11;;;;;;;1.30;1.20;;;13.60;99.90;;;;;;5066268;28;20100;-47
2021/05/16 05:38:37;;;;;;;1.75;1.65;;;13.50;99.90;;;;;;5049668;28;20025;-47
2021/05/16 05:41:03;;;;;;;1.70;1.60;;;13.30;99.90;;;;;;5048826;28;20532;-48
2021/05/16 05:43:28;;;;;;;1.65;1.45;;;13.30;99.90;;;;;;5064102;28;20112;-48
2021/05/16 05:45:54;;;;;;;2.30;1.98;;;13.30;99.90;;;;;;5068753;28;20021;-46
2021/05/16 05:48:20;;;;;;;2.55;1.90;;;13.30;99.90;;;;;;5068513;28;20024;-52
2021/05/16 05:50:46;;;;;;;2.50;2.22;;;13.20;99.90;;;;;;5068763;28;20544;-46
2021/05/16 05:53:12;;;;;;;4.60;2.50;;;13.20;99.90;;;;;;5069652;28;20021;-48
2021/05/16 05:55:38;;;;;;;2.72;2.20;;;13.00;99.90;;;;;;5069866;28;20077;-47
2021/05/16 05:58:04;;;;;;;2.78;2.20;;;13.00;99.90;;;;;;5068744;28;20036;-47
2021/05/16 06:00:30;;;;;;;3.30;1.83;;;13.00;99.90;;;;;;5068817;28;20030;-50
2021/05/16 06:02:59;;;;;;;2.03;1.85;;;13.00;99.90;;;;;;5068349;28;20059;-49
2021/05/16 06:05:26;;;;;;;1.60;1.50;;;13.00;99.90;;;;;;5068524;28;20126;-47
2021/05/16 06:07:52;;;;;;;1.70;1.40;;;13.00;99.90;;;;;;5068465;28;20058;-48
2021/05/16 06:10:18;;;;;;;2.28;1.48;;;13.10;99.90;;;;;;5068806;28;20425;-47
2021/05/16 06:12:45;;;;;;;2.13;1.75;;;13.10;99.90;;;;;;5069230;28;20028;-47
2021/05/16 06:15:11;;;;;;;1.40;1.20;;;13.10;99.90;;;;;;5068179;28;20112;-47
2021/05/16 06:17:37;;;;;;;2.47;1.45;;;13.10;99.90;;;;;;5084648;28;20029;-47
2021/05/16 06:20:04;;;;;;;1.83;1.63;;;13.10;99.90;;;;;;5068234;28;20024;-47
2021/05/16 06:22:30;;;;;;;1.40;1.30;;;13.10;99.90;;;;;;5061494;28;20017;-48
2021/05/16 06:24:56;;;;;;;1.48;1.27;;;13.20;99.90;;;;;;5047304;28;20124;-48
2021/05/16 06:27:22;;;;;;;2.40;1.45;;;13.20;99.90;;;;;;5046718;28;20037;-47
2021/05/16 06:29:48;;;;;;;1.40;1.30;;;13.30;99.90;;;;;;5047682;28;20033;-46
2021/05/16 06:32:14;;;;;;;1.63;1.52;;;13.30;99.90;;;;;;5050798;28;20040;-48
2021/05/16 06:34:40;;;;;;;2.55;2.05;;;13.30;99.90;;;;;;5047043;28;20021;-47
2021/05/16 06:37:07;;;;;;;4.82;2.83;;;13.30;99.90;;;;;;5056960;28;20407;-50
2021/05/16 06:39:33;;;;;;;2.30;2.10;;;13.30;99.90;;;;;;5048155;28;20067;-48
2021/05/16 06:41:58;;;;;;;1.80;1.70;;;13.40;99.90;;;;;;5046668;28;20087;-47
2021/05/16 06:44:25;;;;;;;2.35;2.08;;;13.40;99.90;;;;;;5046509;28;20444;-47
2021/05/16 06:46:51;;;;;;;2.42;2.20;;;13.50;99.90;;;;;;5046688;28;20065;-50
2021/05/16 06:49:17;;;;;;;3.10;2.70;;;13.50;99.90;;;;;;5046928;28;20098;-48
2021/05/16 06:51:43;;;;;;;4.15;3.63;;;13.60;99.90;;;;;;5046464;28;20539;-48
2021/05/16 06:54:09;;;;;;;3.20;2.90;;;13.60;99.90;;;;;;5046500;28;20419;-48
2021/05/16 06:56:37;;;;;;;2.92;2.70;;;13.50;99.90;;;;;;5046314;28;20017;-47
2021/05/16 06:59:04;;;;;;;2.35;2.13;;;13.60;99.90;;;;;;5046716;28;20029;-47
2021/05/16 07:01:30;;;;;;;2.60;2.40;;;13.60;99.90;;;;;;5046227;28;20045;-47
2021/05/16 07:03:56;;;;;;;2.47;2.13;;;13.70;99.90;;;;;;5046223;28;20052;-47
2021/05/16 07:06:23;;;;;;;2.05;1.85;;;13.70;99.90;;;;;;5045966;28;20055;-47
2021/05/16 07:08:49;;;;;;;2.33;2.13;;;13.70;99.90;;;;;;5058538;28;20479;-50
2021/05/16 07:11:15;;;;;;;2.50;2.13;;;13.70;99.90;;;;;;5065150;28;20039;-48
2021/05/16 07:13:42;;;;;;;2.22;2.03;;;13.70;99.90;;;;;;5066093;28;20507;-47
2021/05/16 07:16:07;;;;;;;2.38;1.92;;;13.70;99.90;;;;;;5065694;28;20028;-49
2021/05/16 07:18:33;;;;;;;1.60;1.50;;;13.70;99.90;;;;;;5066005;28;20051;-51
2021/05/16 07:20:59;;;;;;;1.80;1.70;;;13.70;99.90;;;;;;5065884;28;20027;-47
2021/05/16 07:23:25;;;;;;;1.52;1.42;;;13.70;99.90;;;;;;5065641;28;20150;-48
2021/05/16 07:25:51;;;;;;;1.38;1.27;;;13.70;99.90;;;;;;5065668;28;20017;-48
2021/05/16 07:28:17;;;;;;;1.70;1.60;;;13.70;99.90;;;;;;5065446;28;20036;-47
2021/05/16 07:30:42;;;;;;;1.30;1.20;;;13.70;99.90;;;;;;5065803;28;20507;-48
2021/05/16 07:33:10;;;;;;;1.45;1.35;;;13.70;99.90;;;;;;5065465;28;20127;-47
2021/05/16 07:35:36;;;;;;;1.70;1.33;;;13.70;99.90;;;;;;5065581;28;20392;-47
2021/05/16 07:38:03;;;;;;;1.70;1.60;;;13.70;99.90;;;;;;5065562;28;20036;-48
2021/05/16 07:40:30;;;;;;;1.27;1.17;;;13.80;99.90;;;;;;5065279;28;20074;-47
2021/05/16 07:42:56;;;;;;;1.42;1.33;;;13.80;99.90;;;;;;5065389;28;20067;-48
2021/05/16 07:45:23;;;;;;;1.40;1.30;;;13.80;99.90;;;;;;5065339;28;20278;-49
2021/05/16 07:47:49;;;;;;;1.60;1.50;;;13.80;99.90;;;;;;5065875;28;20028;-50
2021/05/16 07:50:16;;;;;;;1.45;1.23;;;13.80;99.90;;;;;;5065239;28;20103;-50
2021/05/16 07:52:42;;;;;;;1.55;1.40;;;13.80;99.90;;;;;;5065658;28;20050;-48
2021/05/16 07:55:09;;;;;;;1.50;1.40;;;13.80;99.90;;;;;;5064503;28;20596;-51
2021/05/16 07:57:35;;;;;;;1.48;1.30;;;13.80;99.90;;;;;;5066130;28;20498;-47
2021/05/16 08:00:01;;;;;;;1.85;1.45;;;13.80;99.90;;;;;;5064744;28;20406;-50
2021/05/16 08:02:27;;;;;;;1.45;1.35;;;13.80;99.90;;;;;;5066816;28;20072;-51
2021/05/16 08:04:53;;;;;;;1.63;1.50;;;13.80;99.90;;;;;;5054871;28;20064;-50
2021/05/16 08:07:18;;;;;;;1.40;1.30;;;13.80;99.90;;;;;;5065980;28;20402;-50
2021/05/16 08:09:44;;;;;;;2.35;1.52;;;13.80;99.90;;;;;;5061025;28;20044;-49
2021/05/16 08:12:10;;;;;;;1.50;1.40;;;13.90;99.90;;;;;;5059679;28;20100;-47
2021/05/16 08:14:36;;;;;;;1.30;1.20;;;13.80;99.90;;;;;;5065908;28;20021;-48
2021/05/16 08:17:03;;;;;;;1.73;1.63;;;13.80;99.90;;;;;;5066648;28;20878;-50
2021/05/16 08:19:29;;;;;;;1.45;1.35;;;13.90;99.90;;;;;;5066522;28;20024;-49
2021/05/16 08:21:55;;;;;;;1.50;1.40;;;13.90;99.90;;;;;;5066418;28;20574;-50
2021/05/16 08:24:20;;;;;;;1.67;1.58;;;14.00;99.90;;;;;;5065569;28;20032;-51
2021/05/16 08:26:46;;;;;;;1.98;1.50;;;14.00;99.90;;;;;;5067291;28;20134;-50
2021/05/16 08:29:12;;;;;;;1.52;1.42;;;14.00;99.90;;;;;;5066199;28;20106;-50
2021/05/16 08:31:37;;;;;;;2.90;1.50;;;14.00;99.90;;;;;;5066719;28;20074;-48
2021/05/16 08:34:05;;;;;;;2.35;1.55;;;13.90;99.90;;;;;;5066260;28;20552;-49
2021/05/16 08:36:38;;;;;;;1.25;1.15;;;14.00;99.90;;;;;;5065264;28;20396;-49
2021/05/16 08:39:05;;;;;;;1.33;1.17;;;14.10;99.90;;;;;;5055376;28;20023;-51
2021/05/16 08:41:35;;;;;;;1.60;1.30;;;14.10;99.90;;;;;;5066200;28;20024;-50
2021/05/16 08:44:05;;;;;;;4.68;2.20;;;14.10;99.90;;;;;;5058249;28;20032;-50
2021/05/16 08:46:30;;;;;;;3.28;2.38;;;14.10;99.90;;;;;;5063750;28;20036;-52
2021/05/16 08:48:56;;;;;;;3.15;2.00;;;14.10;99.90;;;;;;5064792;28;20702;-50
2021/05/16 08:51:23;;;;;;;4.22;3.60;;;14.10;99.90;;;;;;5065093;28;20102;-48
2021/05/16 08:53:49;;;;;;;2.92;2.25;;;14.10;99.90;;;;;;5065155;28;20021;-53
2021/05/16 08:56:15;;;;;;;2.40;2.20;;;14.10;99.90;;;;;;5066854;28;20017;-50
2021/05/16 08:58:40;;;;;;;1.85;1.70;;;14.20;99.90;;;;;;5059328;28;20050;-49
2021/05/16 09:01:24;;;;;;;1.48;1.38;;;14.20;99.90;;;;;;5060786;28;20028;-51
2021/05/16 09:03:50;;;;;;;1.35;1.25;;;14.30;99.90;;;;;;5074593;28;20021;-50
2021/05/16 09:06:17;;;;;;;1.40;1.27;;;14.30;99.90;;;;;;5066861;28;20398;-51
2021/05/16 09:08:43;;;;;;;1.95;1.27;;;14.20;99.90;;;;;;5066705;28;20028;-50
2021/05/16 09:11:10;;;;;;;1.20;1.10;;;14.20;99.90;;;;;;5064324;28;20024;-51
2021/05/16 09:13:45;;;;;;;1.35;1.25;;;14.20;99.90;;;;;;5064405;28;20403;-51
2021/05/16 09:16:15;;;;;;;1.30;1.20;;;14.20;99.90;;;;;;5066263;28;20020;-50
2021/05/16 09:18:55;;;;;;;1.25;1.15;;;14.30;99.90;;;;;;5066879;28;20048;-50
2021/05/16 09:21:35;;;;;;;1.08;0.98;;;14.30;99.90;;;;;;5066187;28;20095;-52
2021/05/16 09:24:03;;;;;;;1.27;1.20;;;14.30;99.90;;;;;;5066841;28;20051;-51
2021/05/16 09:26:55;;;;;;;1.40;1.30;;;14.40;99.90;;;;;;5069547;28;20029;-52
2021/05/16 09:29:26;;;;;;;1.50;1.40;;;14.50;99.90;;;;;;5069871;28;20104;-49
2021/05/16 09:31:53;;;;;;;1.20;1.10;;;14.60;99.90;;;;;;5070193;28;20035;-48
2021/05/16 09:34:19;;;;;;;1.38;1.05;;;14.70;99.90;;;;;;5070281;28;20016;-51
2021/05/16 09:36:46;;;;;;;1.42;1.33;;;14.70;99.90;;;;;;5066778;28;20021;-49
2021/05/16 09:39:18;;;;;;;1.80;1.00;;;14.70;99.90;;;;;;5049677;28;20264;-50
2021/05/16 09:41:59;;;;;;;1.00;1.00;;;14.90;99.90;;;;;;5059386;28;20115;-51
2021/05/16 09:44:30;;;;;;;1.20;1.10;;;15.00;99.90;;;;;;5062670;28;20020;-51
2021/05/16 09:47:09;;;;;;;1.17;1.08;;;15.00;99.90;;;;;;5066558;28;20024;-48
2021/05/16 09:49:35;;;;;;;0.80;0.70;;;15.00;99.90;;;;;;5066870;28;20039;-49
2021/05/16 09:52:11;;;;;;;1.55;1.02;;;15.10;99.90;;;;;;5065003;28;20499;-49
2021/05/16 09:54:56;;;;;;;1.40;1.17;;;15.00;99.90;;;;;;5063922;28;20016;-52
2021/05/16 09:57:25;;;;;;;1.17;1.08;;;15.00;99.90;;;;;;5062568;28;20573;-51
2021/05/16 09:59:50;;;;;;;0.88;0.77;;;15.00;99.90;;;;;;5060545;28;20123;-51
2021/05/16 10:02:16;;;;;;;1.02;0.95;;;15.00;99.90;;;;;;5063006;28;20191;-52
2021/05/16 10:04:44;;;;;;;1.15;1.05;;;15.20;99.90;;;;;;5063532;28;20024;-50
2021/05/16 10:07:11;;;;;;;0.85;0.85;;;15.30;99.90;;;;;;5062333;28;20030;-52
2021/05/16 10:09:37;;;;;;;1.13;0.90;;;15.30;99.90;;;;;;5062960;28;20513;-53
2021/05/16 10:12:04;;;;;;;1.30;1.20;;;15.30;99.90;;;;;;5064058;28;20037;-52
2021/05/16 10:14:31;;;;;;;1.45;0.90;;;15.40;99.90;;;;;;5068976;28;20046;-53
2021/05/16 10:16:59;;;;;;;0.75;0.75;;;15.40;99.90;;;;;;5063166;28;20066;-51
2021/05/16 10:19:35;;;;;;;0.95;0.60;;;15.40;99.90;;;;;;5061711;28;20072;-52
2021/05/16 10:22:11;;;;;;;1.83;0.80;;;15.40;99.90;;;;;;5061143;28;20506;-51
2021/05/16 10:24:51;;;;;;;0.40;0.40;;;15.40;99.90;;;;;;5064586;28;20086;-52
2021/05/16 10:27:17;;;;;;;1.48;0.65;;;15.50;99.90;;;;;;5064068;28;20056;-52
2021/05/16 10:29:50;;;;;;;1.17;0.90;;;15.50;99.90;;;;;;5063977;28;20024;-53
2021/05/16 10:32:38;;;;;;;0.80;0.70;;;15.50;99.90;;;;;;5061145;28;20059;-52
2021/05/16 10:35:06;;;;;;;0.60;0.60;;;15.60;99.90;;;;;;5063590;28;20032;-52
2021/05/16 10:37:46;;;;;;;0.50;0.50;;;15.70;99.90;;;;;;5057928;28;21040;-52
2021/05/16 10:40:12;;;;;;;0.50;0.50;;;15.70;99.90;;;;;;5060900;28;20433;-50
2021/05/16 10:42:40;;;;;;;0.45;0.45;;;15.70;99.90;;;;;;5060834;28;20032;-49
2021/05/16 10:45:15;;;;;;;0.82;0.80;;;15.80;99.90;;;;;;5061630;28;20118;-52
2021/05/16 10:50:09;;;;;;;0.63;0.63;;;15.90;99.90;;;;;;5069031;28;20040;-52
2021/05/16 10:52:35;;;;;;;0.75;0.50;;;15.90;99.90;;;;;;5068299;28;20041;-50
2021/05/16 10:55:01;;;;;;;0.50;0.50;;;15.90;99.90;;;;;;5055250;28;20032;-51
2021/05/16 10:57:37;;;;;;;0.50;0.50;;;16.00;99.90;;;;;;5048174;28;20387;-52
2021/05/16 11:00:21;;;;;;;0.50;0.50;;;16.20;99.90;;;;;;5062937;28;20029;-52
2021/05/16 11:03:02;;;;;;;0.70;0.70;;;16.20;99.90;;;;;;5063689;28;20055;-52
2021/05/16 11:08:18;;;;;;;0.73;0.57;;;16.20;99.90;;;;;;5064859;28;20124;-49
2021/05/16 11:10:45;;;;;;;1.02;0.50;;;16.30;99.90;;;;;;5077387;28;20044;-50
2021/05/16 11:13:14;;;;;;;0.60;0.60;;;16.30;99.90;;;;;;5088204;28;20123;-52
2021/05/16 11:16:07;;;;;;;1.42;0.60;;;16.30;99.90;;;;;;5072348;28;20386;-49
2021/05/16 11:18:36;;;;;;;1.00;0.60;;;16.30;99.90;;;;;;5068165;28;20102;-48
2021/05/16 11:21:09;;;;;;;0.70;0.65;;;16.50;99.90;;;;;;5067929;28;20052;-53
2021/05/16 11:23:38;;;;;;;0.55;0.50;;;16.50;99.90;;;;;;5066881;28;20031;-50
2021/05/16 11:26:05;;;;;;;1.55;0.65;;;16.60;99.90;;;;;;5058680;28;20373;-51
2021/05/16 11:28:33;;;;;;;1.20;1.13;;;16.90;99.90;;;;;;5067686;28;20028;-49
2021/05/16 11:31:06;;;;;;;1.23;1.13;;;16.80;99.90;;;;;;5062831;28;20023;-52
2021/05/16 11:33:38;;;;;;;0.82;0.82;;;17.00;99.90;;;;;;5065755;28;20028;-50
2021/05/16 11:36:05;;;;;;;1.15;0.75;;;17.20;99.90;;;;;;5067644;28;20444;-52
2021/05/16 11:38:32;;;;;;;0.63;0.60;;;17.30;99.90;;;;;;5068153;28;20020;-49
2021/05/16 11:40:58;;;;;;;0.60;0.60;;;17.40;99.90;;;;;;5058242;28;20029;-50
2021/05/16 11:43:30;;;;;;;0.57;0.57;;;17.40;99.90;;;;;;5064687;28;20025;-49
2021/05/16 11:45:57;;;;;;;0.45;0.45;;;17.70;99.90;;;;;;5061431;28;20044;-52
2021/05/16 11:48:31;;;;;;;0.40;0.40;;;17.80;99.90;;;;;;5064122;28;20033;-49
2021/05/16 11:51:23;;;;;;;0.60;0.60;;;17.90;99.90;;;;;;5059731;28;20534;-48
2021/05/16 11:53:50;;;;;;;1.55;0.60;;;18.10;99.90;;;;;;5059314;28;20032;-49
2021/05/16 11:56:22;;;;;;;1.05;0.45;;;18.20;99.90;;;;;;5062901;28;20463;-52
2021/05/16 11:58:59;;;;;;;0.40;0.40;;;18.30;99.90;;;;;;5049094;28;20024;-51
2021/05/16 12:01:32;;;;;;;0.47;0.47;;;18.60;99.90;;;;;;5060955;28;20062;-51
2021/05/16 12:04:08;;;;;;;0.90;0.60;;;18.70;99.90;;;;;;5067392;28;20075;-51
2021/05/16 12:06:46;;;;;;;0.60;0.50;;;18.50;99.90;;;;;;5067228;28;20276;-51
2021/05/16 12:09:18;;;;;;;0.40;0.40;;;18.80;99.90;;;;;;5067609;28;20038;-52
2021/05/16 12:11:47;;;;;;;0.30;0.30;;;18.80;99.90;;;;;;5066790;28;20036;-51
2021/05/16 12:14:16;;;;;;;0.73;0.60;;;18.70;99.90;;;;;;5067004;28;20013;-51
2021/05/16 12:16:56;;;;;;;0.50;0.50;;;18.70;99.90;;;;;;5059887;28;20029;-52
2021/05/16 12:19:27;;;;;;;0.45;0.45;;;19.10;99.90;;;;;;5055544;28;20024;-49
2021/05/16 12:21:57;;;;;;;0.45;0.45;;;18.90;99.90;;;;;;5059408;28;20036;-48
2021/05/16 12:24:24;;;;;;;1.02;0.60;;;18.80;99.90;;;;;;5060940;28;20111;-50
2021/05/16 12:26:51;;;;;;;3.00;0.80;;;18.60;99.90;;;;;;5061270;28;20438;-49
2021/05/16 12:29:18;;;;;;;0.60;0.55;;;18.80;99.90;;;;;;5066230;28;20506;-47
2021/05/16 12:31:46;;;;;;;1.30;0.57;;;19.10;99.90;;;;;;5066975;28;20032;-50
2021/05/16 12:34:14;;;;;;;0.50;0.50;;;19.20;99.90;;;;;;5054645;28;20487;-46
2021/05/16 12:36:49;;;;;;;2.60;0.60;;;19.10;99.90;;;;;;5059867;28;20025;-50
2021/05/16 12:39:41;;;;;;;0.98;0.60;;;19.00;99.90;;;;;;5060879;28;20446;-50
2021/05/16 12:42:37;;;;;;;0.57;0.57;;;18.60;99.90;;;;;;5057572;28;20029;-48
2021/05/16 12:45:30;;;;;;;1.77;0.70;;;18.70;99.90;;;;;;5060090;28;20033;-48
2021/05/16 12:48:04;;;;;;;0.75;0.75;;;18.80;99.90;;;;;;5063517;28;20064;-48
2021/05/16 12:50:32;;;;;;;1.67;0.70;;;18.70;99.90;;;;;;5065462;28;20030;-49
2021/05/16 12:53:19;;;;;;;0.57;0.50;;;19.10;99.90;;;;;;5065981;28;20441;-46
2021/05/16 12:55:45;;;;;;;1.15;0.90;;;19.00;99.90;;;;;;5064900;28;20383;-48
2021/05/16 12:58:18;;;;;;;0.60;0.60;;;19.00;99.90;;;;;;5045681;28;20025;-50